createdAt,value
2023-05-21T00:00:38.722Z,9.95
2023-05-21T00:03:05.410Z,9.75
2023-05-21T00:05:32.593Z,10.68
2023-05-21T00:07:59.410Z,9.32
2023-05-21T00:10:26.693Z,9.95
2023-05-21T00:12:53.283Z,8.23
2023-05-21T00:15:19.872Z,9.73
2023-05-21T00:17:46.862Z,10.82
2023-05-21T00:20:13.652Z,8.85
2023-05-21T00:22:42.238Z,11.20
2023-05-21T00:25:09.979Z,9.98
2023-05-21T00:27:36.648Z,9.45
2023-05-21T00:30:04.185Z,9.10
2023-05-21T00:32:30.784Z,10.45
2023-05-21T00:34:58.265Z,9.20
2023-05-21T00:37:25.062Z,9.48
2023-05-21T00:39:52.223Z,9.73
2023-05-21T00:42:18.858Z,9.43
2023-05-21T00:44:48.714Z,9.93
2023-05-21T00:47:18.237Z,9.07
2023-05-21T00:52:20.190Z,10.07
2023-05-21T00:54:49.689Z,10.73
2023-05-21T00:57:20.611Z,9.48
2023-05-21T00:59:50.551Z,10.57
2023-05-21T01:02:20.025Z,11.15
2023-05-21T01:04:47.175Z,10.32
2023-05-21T01:07:14.604Z,9.80
2023-05-21T01:09:43.171Z,10.30
2023-05-21T01:12:10.995Z,9.18
2023-05-21T01:14:38.504Z,9.90
2023-05-21T01:17:06.461Z,10.18
2023-05-21T01:19:35.469Z,11.10
2023-05-21T01:22:08.067Z,8.70
2023-05-21T01:24:35.583Z,9.88
2023-05-21T01:27:07.682Z,9.60
2023-05-21T01:29:34.492Z,11.77
2023-05-21T01:32:24.331Z,9.50
2023-05-21T01:34:59.922Z,9.70
2023-05-21T01:37:35.672Z,11.60
2023-05-21T01:40:10.614Z,9.90
2023-05-21T01:42:42.510Z,11.02
2023-05-21T01:45:10.586Z,10.77
2023-05-21T01:47:37.674Z,9.63
2023-05-21T01:50:05.681Z,10.63
2023-05-21T01:52:32.295Z,10.45
2023-05-21T01:55:00.354Z,10.32
2023-05-21T01:57:27.118Z,11.98
2023-05-21T01:59:54.185Z,9.88
2023-05-21T02:02:21.838Z,11.07
2023-05-21T02:04:50.098Z,11.73
2023-05-21T02:07:18.290Z,10.52
2023-05-21T02:09:45.160Z,9.93
2023-05-21T02:12:11.857Z,10.95
2023-05-21T02:14:38.858Z,9.52
2023-05-21T02:17:05.730Z,11.00
2023-05-21T02:19:32.553Z,10.35
2023-05-21T02:21:59.267Z,9.43
2023-05-21T02:24:25.850Z,10.77
2023-05-21T02:26:52.492Z,11.05
2023-05-21T02:29:19.432Z,10.70
2023-05-21T02:31:46.193Z,11.98
2023-05-21T02:34:12.894Z,9.75
2023-05-21T02:36:41.608Z,11.88
2023-05-21T02:39:08.250Z,10.02
2023-05-21T02:41:34.907Z,12.32
2023-05-21T02:44:01.632Z,10.43
2023-05-21T02:46:28.399Z,11.82
2023-05-21T02:48:55.490Z,10.63
2023-05-21T02:51:22.727Z,11.02
2023-05-21T02:53:50.023Z,11.88
2023-05-21T02:56:16.742Z,11.35
2023-05-21T02:58:43.439Z,11.68
2023-05-21T03:01:10.221Z,11.40
2023-05-21T03:03:36.941Z,12.13
2023-05-21T03:06:03.886Z,12.38
2023-05-21T03:08:31.888Z,11.52
2023-05-21T03:10:58.692Z,11.05
2023-05-21T03:13:25.929Z,12.07
2023-05-21T03:15:56.228Z,10.73
2023-05-21T03:18:23.990Z,10.13
2023-05-21T03:20:50.698Z,10.88
2023-05-21T03:23:17.998Z,11.98
2023-05-21T03:25:46.034Z,12.88
2023-05-21T03:28:13.748Z,12.52
2023-05-21T03:30:46.768Z,10.95
2023-05-21T03:33:31.631Z,13.00
2023-05-21T03:35:58.972Z,13.68
2023-05-21T03:38:28.577Z,12.88
2023-05-21T03:40:55.208Z,11.32
2023-05-21T03:43:22.261Z,12.68
2023-05-21T03:45:49.040Z,11.85
2023-05-21T03:48:34.266Z,11.27
2023-05-21T03:51:02.440Z,13.65
2023-05-21T03:53:29.166Z,11.23
2023-05-21T03:55:56.022Z,13.32
2023-05-21T03:58:24.631Z,11.30
2023-05-21T04:00:51.362Z,14.63
2023-05-21T04:03:18.302Z,14.55
2023-05-21T04:05:45.189Z,13.27
2023-05-21T04:08:12.403Z,13.57
2023-05-21T04:10:39.009Z,13.45
2023-05-21T04:13:05.642Z,14.75
2023-05-21T04:15:32.490Z,14.50
2023-05-21T04:18:00.426Z,12.07
2023-05-21T04:20:27.193Z,12.80
2023-05-21T04:22:54.288Z,13.00
2023-05-21T04:25:23.156Z,13.80
2023-05-21T04:27:50.178Z,13.43
2023-05-21T04:30:19.987Z,14.30
2023-05-21T04:32:48.223Z,14.43
2023-05-21T04:35:15.338Z,13.82
2023-05-21T04:37:46.013Z,11.80
2023-05-21T04:40:18.417Z,15.10
2023-05-21T04:42:50.761Z,13.55
2023-05-21T04:45:19.036Z,13.52
2023-05-21T04:47:47.905Z,11.45
2023-05-21T04:50:14.639Z,13.98
2023-05-21T04:52:42.383Z,13.02
2023-05-21T04:55:09.135Z,13.18
2023-05-21T04:57:35.812Z,13.25
2023-05-21T05:00:04.124Z,12.85
2023-05-21T05:02:36.911Z,12.18
2023-05-21T05:05:06.758Z,13.75
2023-05-21T05:07:33.416Z,11.27
2023-05-21T05:10:00.076Z,11.65
2023-05-21T05:12:26.712Z,14.38
2023-05-21T05:14:53.321Z,13.43
2023-05-21T05:17:19.929Z,13.50
2023-05-21T05:19:46.609Z,12.75
2023-05-21T05:22:13.699Z,14.02
2023-05-21T05:24:41.857Z,12.88
2023-05-21T05:27:08.516Z,12.98
2023-05-21T05:29:35.141Z,12.30
2023-05-21T05:32:01.953Z,12.55
2023-05-21T05:34:28.591Z,13.80
2023-05-21T05:36:57.209Z,13.05
2023-05-21T05:39:24.007Z,11.80
2023-05-21T05:41:51.270Z,13.60
2023-05-21T05:44:17.906Z,12.38
2023-05-21T05:46:44.813Z,11.48
2023-05-21T05:49:11.480Z,12.82
2023-05-21T05:51:40.242Z,11.25
2023-05-21T05:54:06.825Z,11.93
2023-05-21T05:56:34.897Z,12.68
2023-05-21T05:59:01.483Z,12.55
2023-05-21T06:01:30.170Z,10.93
2023-05-21T06:03:57.415Z,11.07
2023-05-21T06:06:24.242Z,14.43
2023-05-21T06:08:51.275Z,11.73
2023-05-21T06:11:20.390Z,11.70
2023-05-21T06:13:46.998Z,11.75
2023-05-21T06:16:16.798Z,11.95
2023-05-21T06:18:43.834Z,13.38
2023-05-21T06:21:10.534Z,12.23
2023-05-21T06:23:39.062Z,13.00
2023-05-21T06:26:06.302Z,13.93
2023-05-21T06:28:33.214Z,14.50
2023-05-21T06:31:00.465Z,14.40
2023-05-21T06:33:27.570Z,13.95
2023-05-21T06:35:54.310Z,14.77
2023-05-21T06:38:21.338Z,12.75
2023-05-21T06:40:48.017Z,13.38
2023-05-21T06:43:24.655Z,14.90
2023-05-21T06:46:09.840Z,13.85
2023-05-21T06:48:39.527Z,14.60
2023-05-21T06:51:06.454Z,14.52
2023-05-21T06:53:33.319Z,14.70
2023-05-21T06:56:00.467Z,13.88
2023-05-21T06:58:35.608Z,15.18
2023-05-21T07:01:02.482Z,15.50
2023-05-21T07:03:29.594Z,14.52
2023-05-21T07:05:57.718Z,12.85
2023-05-21T07:08:24.429Z,13.27
2023-05-21T07:10:51.132Z,13.43
2023-05-21T07:13:18.228Z,14.23
2023-05-21T07:15:44.988Z,12.95
2023-05-21T07:18:12.152Z,13.43
2023-05-21T07:20:39.379Z,13.48
2023-05-21T07:23:09.203Z,11.75
2023-05-21T07:25:36.199Z,12.25
2023-05-21T07:28:06.442Z,11.73
2023-05-21T07:30:34.894Z,11.50
2023-05-21T07:33:02.976Z,12.65
2023-05-21T07:35:29.783Z,12.63
2023-05-21T07:37:56.825Z,10.70
2023-05-21T07:40:24.600Z,12.35
2023-05-21T07:42:52.151Z,12.73
2023-05-21T07:45:20.345Z,11.57
2023-05-21T07:47:47.229Z,12.48
2023-05-21T07:50:14.844Z,11.60
2023-05-21T07:52:41.770Z,11.40
2023-05-21T07:55:09.540Z,12.00
2023-05-21T07:57:37.845Z,11.95
2023-05-21T08:00:15.432Z,12.30
2023-05-21T08:02:42.352Z,11.15
2023-05-21T08:05:11.487Z,12.35
2023-05-21T08:07:38.234Z,13.25
2023-05-21T08:10:05.352Z,12.73
2023-05-21T08:12:32.540Z,12.15
2023-05-21T08:14:59.660Z,12.00
2023-05-21T08:17:28.470Z,13.35
2023-05-21T08:19:55.498Z,11.68
2023-05-21T08:22:22.417Z,11.90
2023-05-21T08:24:49.931Z,11.32
2023-05-21T08:27:16.579Z,11.02
2023-05-21T08:29:43.506Z,11.98
2023-05-21T08:32:10.786Z,10.20
2023-05-21T08:34:37.956Z,10.30
2023-05-21T08:37:26.288Z,10.52
2023-05-21T08:40:01.129Z,10.13
2023-05-21T08:42:46.009Z,10.93
2023-05-21T08:45:21.307Z,9.68
2023-05-21T08:50:20.346Z,9.70
2023-05-21T08:52:47.832Z,9.32
2023-05-21T08:55:14.566Z,9.02
2023-05-21T08:57:44.390Z,12.00
2023-05-21T09:00:16.804Z,7.68
2023-05-21T09:02:46.874Z,8.45
2023-05-21T09:05:15.618Z,9.50
2023-05-21T09:07:52.512Z,7.75
2023-05-21T09:10:40.707Z,8.77
2023-05-21T09:13:09.316Z,9.15
2023-05-21T09:15:37.674Z,9.98
2023-05-21T09:18:06.337Z,9.65
2023-05-21T09:20:41.982Z,9.27
2023-05-21T09:23:18.238Z,10.88
2023-05-21T09:25:47.814Z,9.43
2023-05-21T09:28:33.294Z,9.50
2023-05-21T09:31:12.565Z,8.43
2023-05-21T09:33:46.060Z,8.48
2023-05-21T09:36:13.199Z,9.13
2023-05-21T09:38:39.923Z,8.48
2023-05-21T09:41:06.848Z,9.45
2023-05-21T09:43:34.828Z,9.35
2023-05-21T09:46:02.928Z,8.63
2023-05-21T09:48:34.556Z,9.52
2023-05-21T09:51:17.807Z,9.18
2023-05-21T09:53:53.909Z,9.70
2023-05-21T09:56:25.003Z,10.57
2023-05-21T10:01:19.983Z,8.35
2023-05-21T10:03:52.084Z,8.77
2023-05-21T10:06:19.866Z,8.05
2023-05-21T10:08:49.186Z,7.38
2023-05-21T10:11:16.699Z,8.32
2023-05-21T10:13:48.984Z,7.40
2023-05-21T10:16:15.848Z,8.27
2023-05-21T10:18:44.090Z,7.85
2023-05-21T10:21:10.803Z,7.93
2023-05-21T10:23:38.572Z,7.85
2023-05-21T10:26:06.968Z,7.68
2023-05-21T10:28:34.008Z,7.47
2023-05-21T10:31:01.175Z,7.10
2023-05-21T10:33:29.261Z,7.45
2023-05-21T10:35:58.510Z,8.43
2023-05-21T10:38:25.725Z,7.40
2023-05-21T10:40:53.676Z,7.13
2023-05-21T10:43:53.267Z,6.82
2023-05-21T10:46:35.353Z,6.32
2023-05-21T10:49:44.045Z,6.18
2023-05-21T10:52:21.970Z,6.40
2023-05-21T10:54:58.607Z,6.45
2023-05-21T10:57:54.603Z,6.60
2023-05-21T11:00:21.935Z,5.85
2023-05-21T11:02:52.941Z,5.30
2023-05-21T11:05:51.122Z,5.95
2023-05-21T11:08:33.749Z,5.88
2023-05-21T11:11:00.756Z,5.88
2023-05-21T11:13:31.436Z,5.53
2023-05-21T11:15:58.186Z,4.18
2023-05-21T11:18:31.169Z,3.90
2023-05-21T11:21:14.425Z,4.70
2023-05-21T11:23:55.312Z,4.72
2023-05-21T11:26:24.105Z,5.18
2023-05-21T11:29:11.217Z,4.72
2023-05-21T11:31:38.549Z,3.63
2023-05-21T11:34:28.749Z,4.53
2023-05-21T11:37:18.006Z,5.18
2023-05-21T11:39:45.425Z,4.60
2023-05-21T11:42:12.142Z,5.13
2023-05-21T11:44:40.018Z,5.22
2023-05-21T11:47:08.480Z,4.45
2023-05-21T11:49:36.084Z,5.10
2023-05-21T11:52:04.507Z,5.70
2023-05-21T11:54:35.964Z,5.15
2023-05-21T11:57:05.980Z,5.25
2023-05-21T11:59:33.443Z,5.70
2023-05-21T12:02:00.218Z,5.55
2023-05-21T12:04:37.180Z,4.82
2023-05-21T12:07:05.168Z,4.68
2023-05-21T12:09:31.753Z,4.85
2023-05-21T12:11:58.362Z,4.80
2023-05-21T12:14:24.967Z,3.85
2023-05-21T12:16:52.028Z,4.25
2023-05-21T12:19:19.163Z,4.68
2023-05-21T12:21:46.079Z,5.28
2023-05-21T12:24:15.989Z,4.65
2023-05-21T12:26:44.529Z,4.78
2023-05-21T12:29:11.761Z,4.78
2023-05-21T12:31:50.727Z,4.40
2023-05-21T12:34:46.489Z,3.67
2023-05-21T12:37:22.330Z,4.68
2023-05-21T12:39:54.008Z,3.80
2023-05-21T12:42:30.978Z,3.00
2023-05-21T12:45:06.756Z,2.45
2023-05-21T12:47:37.894Z,2.30
2023-05-21T12:50:09.368Z,2.38
2023-05-21T12:52:37.778Z,2.00
2023-05-21T12:55:09.398Z,2.60
2023-05-21T12:57:38.914Z,3.22
2023-05-21T13:00:15.323Z,3.65
2023-05-21T13:02:52.342Z,3.53
2023-05-21T13:05:22.640Z,3.20
2023-05-21T13:08:14.931Z,3.47
2023-05-21T13:11:27.437Z,3.97
2023-05-21T13:14:01.007Z,3.90
2023-05-21T13:19:42.689Z,3.92
2023-05-21T13:22:11.583Z,4.55
2023-05-21T13:24:39.776Z,5.10
2023-05-21T13:27:10.132Z,4.90
2023-05-21T13:29:39.314Z,4.80
2023-05-21T13:32:11.482Z,4.20
2023-05-21T13:34:44.612Z,4.53
2023-05-21T13:37:18.459Z,4.53
2023-05-21T13:39:46.956Z,4.65
2023-05-21T13:42:20.102Z,5.38
2023-05-21T13:45:12.429Z,4.90
2023-05-21T13:47:51.938Z,4.65
2023-05-21T13:50:21.380Z,4.53
2023-05-21T13:52:51.361Z,5.28
2023-05-21T13:55:22.007Z,5.60
2023-05-21T13:58:09.835Z,4.88
2023-05-21T14:00:41.806Z,5.37
2023-05-21T14:03:12.200Z,5.33
2023-05-21T14:05:41.758Z,5.13
2023-05-21T14:08:21.415Z,5.80
2023-05-21T14:10:48.097Z,5.82
2023-05-21T14:13:20.047Z,6.30
2023-05-21T14:15:48.539Z,6.10
2023-05-21T14:18:50.089Z,5.75
2023-05-21T14:21:19.534Z,5.97
2023-05-21T14:23:47.439Z,6.72
2023-05-21T14:30:20.374Z,7.03
2023-05-21T14:32:57.961Z,7.47
2023-05-21T14:35:24.792Z,7.20
2023-05-21T14:37:52.208Z,7.22
2023-05-21T14:40:18.772Z,8.20
2023-05-21T14:42:45.416Z,8.13
2023-05-21T14:45:19.192Z,8.73
2023-05-21T14:47:47.724Z,7.18
2023-05-21T14:50:15.438Z,7.70
2023-05-21T14:52:43.307Z,7.53
2023-05-21T14:55:12.906Z,7.35
2023-05-21T14:57:39.599Z,8.30
2023-05-21T15:00:06.804Z,7.80
2023-05-21T15:02:33.573Z,7.45
2023-05-21T15:05:00.275Z,7.90
2023-05-21T15:07:26.885Z,7.68
2023-05-21T15:09:53.541Z,8.32
2023-05-21T15:12:20.488Z,6.20
2023-05-21T15:14:47.074Z,7.35
2023-05-21T15:17:13.662Z,7.03
2023-05-21T15:19:42.971Z,7.25
2023-05-21T15:22:10.141Z,8.18
2023-05-21T15:24:38.915Z,7.20
2023-05-21T15:27:05.750Z,7.18
2023-05-21T15:29:34.817Z,7.00
2023-05-21T15:32:05.023Z,6.85
2023-05-21T15:34:32.481Z,6.47
2023-05-21T15:36:59.228Z,6.65
2023-05-21T15:39:27.556Z,6.80
2023-05-21T15:42:00.515Z,6.28
2023-05-21T15:44:28.889Z,6.93
2023-05-21T15:46:55.586Z,6.68
2023-05-21T15:49:22.654Z,7.03
2023-05-21T15:51:49.684Z,8.15
2023-05-21T15:54:16.539Z,6.40
2023-05-21T15:56:45.565Z,5.85
2023-05-21T15:59:13.918Z,6.43
2023-05-21T16:01:40.934Z,5.93
2023-05-21T16:04:09.270Z,6.90
2023-05-21T16:06:36.217Z,5.75
2023-05-21T16:09:03.205Z,7.10
2023-05-21T16:11:29.955Z,6.55
2023-05-21T16:13:56.902Z,6.95
2023-05-21T16:16:24.896Z,7.50
2023-05-21T16:18:51.927Z,8.75
2023-05-21T16:21:18.960Z,7.32
2023-05-21T16:23:46.056Z,7.15
2023-05-21T16:26:13.073Z,7.60
2023-05-21T16:28:43.097Z,8.30
2023-05-21T16:31:10.922Z,7.95
2023-05-21T16:33:37.635Z,8.85
2023-05-21T16:36:04.693Z,8.45
2023-05-21T16:38:31.625Z,7.75
2023-05-21T16:40:58.428Z,7.20
2023-05-21T16:43:25.197Z,6.80
2023-05-21T16:45:53.502Z,7.22
2023-05-21T16:48:20.390Z,8.45
2023-05-21T16:50:47.207Z,7.40
2023-05-21T16:53:14.171Z,7.03
2023-05-21T16:55:42.690Z,7.60
2023-05-21T16:58:10.901Z,6.93
2023-05-21T17:00:37.681Z,7.97
2023-05-21T17:03:04.698Z,7.50
2023-05-21T17:05:31.537Z,7.80
2023-05-21T17:07:58.501Z,8.43
2023-05-21T17:10:25.380Z,7.32
2023-05-21T17:12:52.644Z,7.63
2023-05-21T17:15:19.657Z,7.70
2023-05-21T17:17:47.615Z,7.07
2023-05-21T17:20:14.648Z,7.57
2023-05-21T17:22:41.579Z,7.72
2023-05-21T17:25:08.727Z,7.00
2023-05-21T17:27:35.905Z,7.25
2023-05-21T17:30:03.910Z,7.22
2023-05-21T17:32:30.836Z,7.22
2023-05-21T17:34:57.736Z,6.50
2023-05-21T17:37:24.722Z,6.72
2023-05-21T17:39:51.555Z,7.13
2023-05-21T17:42:18.901Z,6.93
2023-05-21T17:44:45.643Z,7.57
2023-05-21T17:47:12.560Z,7.07
2023-05-21T17:49:39.725Z,7.32
2023-05-21T17:52:06.988Z,6.85
2023-05-21T17:54:35.206Z,7.28
2023-05-21T17:57:02.962Z,6.68
2023-05-21T17:59:29.790Z,6.80
2023-05-21T18:01:57.770Z,7.65
2023-05-21T18:04:24.843Z,7.05
2023-05-21T18:06:51.874Z,6.60
2023-05-21T18:09:19.293Z,6.63
2023-05-21T18:11:46.225Z,7.10
2023-05-21T18:14:13.491Z,7.10
2023-05-21T18:16:40.983Z,6.95
2023-05-21T18:19:08.156Z,6.90
2023-05-21T18:21:35.357Z,7.18
2023-05-21T18:24:02.654Z,6.65
2023-05-21T18:26:30.294Z,7.70
2023-05-21T18:28:58.050Z,7.10
2023-05-21T18:31:25.648Z,7.20
2023-05-21T18:33:52.448Z,7.18
2023-05-21T18:36:19.233Z,7.13
2023-05-21T18:38:46.159Z,7.25
2023-05-21T18:41:13.121Z,7.53
2023-05-21T18:43:41.592Z,7.20
2023-05-21T18:46:08.664Z,8.00
2023-05-21T18:48:35.544Z,7.13
2023-05-21T18:51:02.270Z,7.53
2023-05-21T18:53:29.197Z,7.40
2023-05-21T18:55:57.183Z,7.28
2023-05-21T18:58:24.454Z,7.90
2023-05-21T19:00:51.293Z,7.32
2023-05-21T19:03:18.035Z,7.88
2023-05-21T19:05:45.300Z,7.45
2023-05-21T19:08:12.276Z,7.25
2023-05-21T19:10:39.330Z,7.57
2023-05-21T19:13:06.685Z,8.13
2023-05-21T19:15:33.507Z,8.20
2023-05-21T19:18:01.281Z,7.60
2023-05-21T19:20:28.336Z,7.82
2023-05-21T19:22:59.034Z,7.70
2023-05-21T19:25:27.169Z,8.20
2023-05-21T19:27:53.960Z,9.07
2023-05-21T19:30:20.652Z,7.63
2023-05-21T19:32:50.916Z,8.48
2023-05-21T19:35:40.022Z,7.65
2023-05-21T19:38:07.352Z,8.27
2023-05-21T19:40:34.288Z,9.18
2023-05-21T19:43:03.392Z,9.07
2023-05-21T19:45:30.113Z,9.10
2023-05-21T19:47:57.171Z,8.40
2023-05-21T19:50:25.622Z,7.18
2023-05-21T19:52:52.432Z,9.07
2023-05-21T19:55:20.454Z,8.77
2023-05-21T19:57:47.564Z,8.55
2023-05-21T20:00:15.876Z,8.05
2023-05-21T20:02:42.774Z,9.43
2023-05-21T20:05:10.635Z,8.93
2023-05-21T20:07:37.625Z,10.15
2023-05-21T20:10:04.681Z,8.90
2023-05-21T20:12:34.543Z,9.57
2023-05-21T20:15:01.316Z,8.95
2023-05-21T20:17:30.563Z,8.65
2023-05-21T20:19:59.330Z,9.63
2023-05-21T20:22:26.998Z,9.60
2023-05-21T20:24:54.306Z,9.38
2023-05-21T20:27:21.651Z,9.30
2023-05-21T20:29:48.942Z,9.52
2023-05-21T20:32:16.378Z,9.55
2023-05-21T20:34:54.672Z,10.02
2023-05-21T20:37:32.313Z,9.15
2023-05-21T20:39:59.984Z,9.88
2023-05-21T20:42:28.973Z,8.82
2023-05-21T20:44:58.846Z,9.43
2023-05-21T20:47:30.157Z,8.65
2023-05-21T20:52:26.044Z,8.70
2023-05-21T20:54:54.703Z,8.70
2023-05-21T20:57:26.711Z,9.60
2023-05-21T20:59:53.592Z,9.80
2023-05-21T21:02:21.721Z,8.13
2023-05-21T21:04:49.945Z,9.13
2023-05-21T21:07:18.296Z,9.10
2023-05-21T21:09:46.513Z,9.20
2023-05-21T21:14:48.639Z,10.07
2023-05-21T21:17:15.815Z,8.32
2023-05-21T21:19:46.125Z,9.52
2023-05-21T21:22:13.173Z,9.73
2023-05-21T21:24:39.976Z,9.90
2023-05-21T21:27:06.823Z,10.20
2023-05-21T21:29:33.557Z,9.68
2023-05-21T21:32:00.369Z,10.32
2023-05-21T21:34:27.162Z,10.35
2023-05-21T21:36:54.195Z,9.95
2023-05-21T21:39:22.454Z,9.73
2023-05-21T21:41:49.583Z,9.48
2023-05-21T21:44:16.415Z,9.13
2023-05-21T21:46:43.184Z,10.52
2023-05-21T21:49:10.013Z,9.43
2023-05-21T21:51:37.024Z,9.30
2023-05-21T21:54:04.203Z,8.93
2023-05-21T21:56:33.973Z,9.57
2023-05-21T21:59:00.756Z,10.23
2023-05-21T22:01:27.677Z,9.10
2023-05-21T22:03:54.500Z,9.80
2023-05-21T22:06:21.320Z,8.95
2023-05-21T22:08:48.419Z,10.18
2023-05-21T22:11:15.309Z,9.45
2023-05-21T22:13:42.079Z,10.15
2023-05-21T22:16:08.941Z,8.80
2023-05-21T22:18:40.429Z,9.57
2023-05-21T22:21:10.203Z,9.73
2023-05-21T22:23:38.541Z,10.60
2023-05-21T22:26:05.965Z,9.82
2023-05-21T22:28:32.965Z,9.35
2023-05-21T22:30:59.790Z,9.48
2023-05-21T22:33:26.983Z,9.30
2023-05-21T22:35:54.518Z,9.48
2023-05-21T22:38:21.621Z,10.32
2023-05-21T22:40:48.658Z,9.15
2023-05-21T22:43:15.646Z,9.30
2023-05-21T22:45:42.561Z,9.52
2023-05-21T22:48:09.950Z,8.80
2023-05-21T22:50:38.657Z,10.27
2023-05-21T22:53:07.068Z,9.07
2023-05-21T22:55:33.821Z,8.93
2023-05-21T22:58:00.605Z,8.45
2023-05-21T23:00:27.516Z,8.60
2023-05-21T23:02:54.954Z,9.52
2023-05-21T23:05:22.593Z,10.45
2023-05-21T23:07:49.898Z,8.85
2023-05-21T23:10:16.879Z,7.97
2023-05-21T23:12:43.822Z,8.63
2023-05-21T23:15:11.051Z,8.50
2023-05-21T23:17:38.436Z,8.65
2023-05-21T23:20:07.425Z,9.07
2023-05-21T23:22:34.820Z,9.90
2023-05-21T23:25:01.668Z,9.27
2023-05-21T23:27:29.252Z,8.82
2023-05-21T23:29:56.070Z,9.68
2023-05-21T23:32:23.651Z,9.43
2023-05-21T23:34:50.916Z,9.07
2023-05-21T23:37:17.834Z,9.55
2023-05-21T23:39:48.166Z,8.85
2023-05-21T23:42:16.088Z,8.93
2023-05-21T23:44:42.959Z,9.13
2023-05-21T23:47:09.976Z,10.07
2023-05-21T23:49:36.777Z,8.68
2023-05-21T23:52:03.917Z,9.45
2023-05-21T23:54:30.789Z,9.27
2023-05-21T23:56:57.635Z,9.48
2023-05-21T23:59:24.372Z,9.02
